createdAt,value
2022-10-30T00:01:09.798Z,101472.78
2022-10-30T00:03:39.095Z,101477.19
2022-10-30T00:06:07.546Z,101471.25
2022-10-30T00:08:35.596Z,101470.47
2022-10-30T00:11:08.344Z,101465.97
2022-10-30T00:13:36.538Z,101456.41
2022-10-30T00:16:05.391Z,101461.34
2022-10-30T00:18:33.459Z,101467.50
2022-10-30T00:21:08.199Z,101470.09
2022-10-30T00:23:36.180Z,101465.13
2022-10-30T00:26:05.207Z,101460.16
2022-10-30T00:28:33.140Z,101455.78
2022-10-30T00:31:01.619Z,101444.41
2022-10-30T00:33:31.005Z,101455.66
2022-10-30T00:35:59.508Z,101461.66
2022-10-30T00:38:28.841Z,101458.94
2022-10-30T00:40:56.716Z,101451.06
2022-10-30T00:43:30.893Z,101463.88
2022-10-30T00:45:59.770Z,101458.09
2022-10-30T00:48:27.832Z,101433.72
2022-10-30T00:50:56.956Z,101439.53
2022-10-30T00:53:25.159Z,101435.75
2022-10-30T00:55:57.084Z,101437.41
2022-10-30T00:58:27.904Z,101426.94
2022-10-30T01:00:58.368Z,101426.25
2022-10-30T01:03:27.806Z,101414.78
2022-10-30T01:05:58.707Z,101414.84
2022-10-30T01:08:26.682Z,101418.41
2022-10-30T01:10:57.852Z,101416.66
2022-10-30T01:13:26.388Z,101422.94
2022-10-30T01:16:15.132Z,101415.78
2022-10-30T01:18:47.604Z,101423.88
2022-10-30T01:21:24.703Z,101426.16
2022-10-30T01:24:04.158Z,101421.28
2022-10-30T01:26:39.872Z,101417.88
2022-10-30T01:29:16.968Z,101421.41
2022-10-30T01:31:53.293Z,101425.03
2022-10-30T01:34:24.138Z,101438.25
2022-10-30T01:36:56.736Z,101433.16
2022-10-30T01:39:25.298Z,101431.72
2022-10-30T01:41:54.703Z,101425.63
2022-10-30T01:44:25.689Z,101434.31
2022-10-30T01:47:15.965Z,101432.59
2022-10-30T01:50:04.011Z,101422.22
2022-10-30T01:52:39.602Z,101420.69
2022-10-30T01:55:15.257Z,101418.09
2022-10-30T01:57:51.109Z,101428.78
2022-10-30T02:00:20.124Z,101422.84
2022-10-30T02:02:49.810Z,101430.47
2022-10-30T02:05:34.015Z,101425.41
2022-10-30T02:08:02.798Z,101428.69
2022-10-30T02:10:32.617Z,101424.69
2022-10-30T02:13:02.206Z,101422.84
2022-10-30T02:15:30.387Z,101428.22
2022-10-30T02:17:59.110Z,101428.38
2022-10-30T02:20:28.749Z,101421.50
2022-10-30T02:22:59.251Z,101417.28
2022-10-30T02:25:32.313Z,101415.75
2022-10-30T02:28:00.202Z,101410.69
2022-10-30T02:30:30.782Z,101401.81
2022-10-30T02:32:58.926Z,101398.94
2022-10-30T02:35:28.468Z,101383.88
2022-10-30T02:38:01.785Z,101384.69
2022-10-30T02:40:32.214Z,101388.31
2022-10-30T02:43:00.090Z,101387.69
2022-10-30T02:45:27.990Z,101382.63
2022-10-30T02:47:56.340Z,101374.78
2022-10-30T02:50:24.506Z,101377.50
2022-10-30T02:52:54.713Z,101375.69
2022-10-30T02:55:23.288Z,101368.63
2022-10-30T02:57:53.772Z,101367.97
2022-10-30T03:00:21.888Z,101370.84
2022-10-30T03:02:49.853Z,101367.56
2022-10-30T03:05:17.944Z,101367.44
2022-10-30T03:07:48.374Z,101366.81
2022-10-30T03:10:18.079Z,101364.28
2022-10-30T03:12:45.994Z,101362.38
2022-10-30T03:15:13.882Z,101364.88
2022-10-30T03:20:12.961Z,101362.38
2022-10-30T03:22:40.905Z,101351.09
2022-10-30T03:25:09.456Z,101353.72
2022-10-30T03:27:38.712Z,101358.03
2022-10-30T03:30:08.082Z,101345.97
2022-10-30T03:32:35.938Z,101346.84
2022-10-30T03:35:04.696Z,101335.44
2022-10-30T03:37:32.717Z,101340.63
2022-10-30T03:40:00.764Z,101332.81
2022-10-30T03:42:28.642Z,101325.91
2022-10-30T03:44:57.934Z,101322.28
2022-10-30T03:47:25.830Z,101329.38
2022-10-30T03:49:55.779Z,101323.16
2022-10-30T03:52:24.398Z,101331.06
2022-10-30T03:54:53.086Z,101316.97
2022-10-30T03:57:21.825Z,101324.13
2022-10-30T04:00:11.184Z,101324.00
2022-10-30T04:02:46.182Z,101323.16
2022-10-30T04:05:15.032Z,101325.75
2022-10-30T04:07:43.038Z,101326.41
2022-10-30T04:10:11.211Z,101322.13
2022-10-30T04:12:39.186Z,101310.81
2022-10-30T04:15:10.350Z,101313.28
2022-10-30T04:17:38.626Z,101308.78
2022-10-30T04:20:08.010Z,101311.47
2022-10-30T04:22:35.872Z,101303.84
2022-10-30T04:25:03.786Z,101301.22
2022-10-30T04:27:32.745Z,101300.09
2022-10-30T04:30:00.604Z,101296.63
2022-10-30T04:32:30.233Z,101291.31
2022-10-30T04:34:58.073Z,101298.63
2022-10-30T04:37:26.598Z,101297.66
2022-10-30T04:39:54.453Z,101292.25
2022-10-30T04:42:26.611Z,101286.16
2022-10-30T04:44:55.093Z,101280.06
2022-10-30T04:47:23.058Z,101281.91
2022-10-30T04:49:52.383Z,101279.22
2022-10-30T04:52:20.234Z,101277.78
2022-10-30T04:54:48.094Z,101274.47
2022-10-30T04:57:15.966Z,101269.22
2022-10-30T04:59:44.772Z,101261.53
2022-10-30T05:02:12.715Z,101264.28
2022-10-30T05:04:40.707Z,101258.25
2022-10-30T05:07:09.944Z,101259.91
2022-10-30T05:09:37.897Z,101249.53
2022-10-30T05:12:06.421Z,101245.91
2022-10-30T05:14:41.493Z,101246.88
2022-10-30T05:17:09.981Z,101245.88
2022-10-30T05:19:38.872Z,101249.34
2022-10-30T05:22:07.236Z,101243.19
2022-10-30T05:24:37.962Z,101244.16
2022-10-30T05:27:06.498Z,101241.41
2022-10-30T05:29:35.245Z,101233.19
2022-10-30T05:32:03.200Z,101225.69
2022-10-30T05:34:40.415Z,101230.88
2022-10-30T05:37:08.457Z,101224.88
2022-10-30T05:39:38.073Z,101237.94
2022-10-30T05:42:13.978Z,101232.84
2022-10-30T05:45:00.576Z,101228.63
2022-10-30T05:47:30.405Z,101224.22
2022-10-30T05:49:58.741Z,101221.88
2022-10-30T05:52:29.185Z,101219.41
2022-10-30T05:54:59.469Z,101217.75
2022-10-30T05:57:44.140Z,101212.59
2022-10-30T06:00:13.113Z,101213.44
2022-10-30T06:02:43.875Z,101216.78
2022-10-30T06:05:13.751Z,101219.38
2022-10-30T06:07:41.603Z,101220.09
2022-10-30T06:10:11.050Z,101219.34
2022-10-30T06:12:53.868Z,101225.19
2022-10-30T06:15:33.736Z,101215.59
2022-10-30T06:18:02.012Z,101214.03
2022-10-30T06:20:56.567Z,101216.53
2022-10-30T06:23:43.262Z,101212.19
2022-10-30T06:26:30.783Z,101219.16
2022-10-30T06:29:05.030Z,101213.94
2022-10-30T06:31:33.373Z,101215.66
2022-10-30T06:34:02.328Z,101212.97
2022-10-30T06:36:32.059Z,101217.28
2022-10-30T06:39:00.833Z,101226.66
2022-10-30T06:41:36.772Z,101226.75
2022-10-30T06:44:23.213Z,101226.78
2022-10-30T06:46:53.927Z,101226.59
2022-10-30T06:49:21.947Z,101225.94
2022-10-30T06:51:51.941Z,101222.34
2022-10-30T06:54:19.844Z,101229.25
2022-10-30T06:57:08.995Z,101221.47
2022-10-30T07:00:00.251Z,101231.91
2022-10-30T07:02:35.864Z,101225.91
2022-10-30T07:05:08.293Z,101224.91
2022-10-30T07:07:36.897Z,101225.88
2022-10-30T07:10:05.005Z,101218.84
2022-10-30T07:12:58.838Z,101223.94
2022-10-30T07:15:43.534Z,101217.91
2022-10-30T07:18:22.255Z,101210.91
2022-10-30T07:20:55.105Z,101216.03
2022-10-30T07:23:23.535Z,101213.44
2022-10-30T07:25:53.417Z,101208.09
2022-10-30T07:28:32.630Z,101213.16
2022-10-30T07:31:29.018Z,101214.56
2022-10-30T07:34:16.977Z,101214.41
2022-10-30T07:37:04.461Z,101223.81
2022-10-30T07:40:01.315Z,101220.16
2022-10-30T07:42:57.572Z,101226.13
2022-10-30T07:45:42.954Z,101231.88
2022-10-30T07:48:29.246Z,101239.44
2022-10-30T07:51:23.490Z,101236.53
2022-10-30T07:53:51.465Z,101238.19
2022-10-30T07:56:21.025Z,101240.94
2022-10-30T07:58:55.067Z,101246.16
2022-10-30T08:01:39.275Z,101250.94
2022-10-30T08:04:23.460Z,101254.38
2022-10-30T08:06:56.859Z,101258.72
2022-10-30T08:09:24.750Z,101261.97
2022-10-30T08:11:52.774Z,101268.38
2022-10-30T08:14:20.947Z,101271.72
2022-10-30T08:16:51.563Z,101269.91
2022-10-30T08:19:19.558Z,101276.59
2022-10-30T08:21:49.068Z,101288.72
2022-10-30T08:24:19.960Z,101283.59
2022-10-30T08:26:52.394Z,101287.06
2022-10-30T08:29:20.425Z,101305.22
2022-10-30T08:31:52.084Z,101302.94
2022-10-30T08:34:23.198Z,101317.84
2022-10-30T08:36:55.497Z,101316.31
2022-10-30T08:39:24.945Z,101325.69
2022-10-30T08:41:55.473Z,101323.50
2022-10-30T08:44:23.404Z,101326.47
2022-10-30T08:47:15.329Z,101326.88
2022-10-30T08:49:43.462Z,101323.06
2022-10-30T08:52:12.132Z,101331.41
2022-10-30T08:54:40.613Z,101326.91
2022-10-30T08:57:08.658Z,101320.41
2022-10-30T08:59:36.572Z,101324.06
2022-10-30T09:02:04.612Z,101323.47
2022-10-30T09:04:52.908Z,101317.16
2022-10-30T09:07:56.981Z,101321.81
2022-10-30T09:10:43.320Z,101331.03
2022-10-30T09:13:11.288Z,101343.75
2022-10-30T09:15:39.143Z,101342.59
2022-10-30T09:18:07.346Z,101343.28
2022-10-30T09:20:36.574Z,101343.53
2022-10-30T09:23:04.894Z,101344.44
2022-10-30T09:25:32.743Z,101346.31
2022-10-30T09:28:33.044Z,101351.78
2022-10-30T09:31:22.078Z,101345.69
2022-10-30T09:33:50.855Z,101350.63
2022-10-30T09:36:39.413Z,101348.66
2022-10-30T09:39:08.187Z,101344.03
2022-10-30T09:41:51.195Z,101348.03
2022-10-30T09:44:29.975Z,101346.81
2022-10-30T09:47:09.125Z,101357.94
2022-10-30T09:49:53.997Z,101355.84
2022-10-30T09:52:29.135Z,101362.13
2022-10-30T09:55:19.635Z,101359.56
2022-10-30T09:57:54.284Z,101361.28
2022-10-30T10:00:24.145Z,101358.94
2022-10-30T10:03:06.790Z,101362.28
2022-10-30T10:05:49.824Z,101353.00
2022-10-30T10:08:43.767Z,101359.88
2022-10-30T10:11:38.429Z,101361.78
2022-10-30T10:14:09.622Z,101373.66
2022-10-30T10:16:40.073Z,101380.41
2022-10-30T10:19:11.376Z,101395.91
2022-10-30T10:21:45.418Z,101406.91
2022-10-30T10:24:19.829Z,101405.34
2022-10-30T10:26:50.186Z,101425.72
2022-10-30T10:29:35.323Z,101418.06
2022-10-30T10:32:39.165Z,101415.28
2022-10-30T10:35:21.903Z,101419.56
2022-10-30T10:37:53.878Z,101419.63
2022-10-30T10:40:37.689Z,101420.88
2022-10-30T10:43:15.060Z,101420.31
2022-10-30T10:45:50.861Z,101427.69
2022-10-30T10:48:33.362Z,101427.28
2022-10-30T10:51:04.248Z,101423.00
2022-10-30T10:53:43.840Z,101418.75
2022-10-30T10:56:14.026Z,101416.31
2022-10-30T10:58:49.709Z,101412.63
2022-10-30T11:01:20.592Z,101404.53
2022-10-30T11:03:56.025Z,101409.22
2022-10-30T11:06:26.740Z,101413.34
2022-10-30T11:09:01.403Z,101412.75
2022-10-30T11:11:30.899Z,101407.25
2022-10-30T11:13:59.492Z,101411.66
2022-10-30T11:16:30.576Z,101420.91
2022-10-30T11:19:01.219Z,101422.91
2022-10-30T11:21:31.800Z,101420.94
2022-10-30T11:23:59.702Z,101416.56
2022-10-30T11:26:37.215Z,101427.50
2022-10-30T11:29:14.178Z,101429.84
2022-10-30T11:31:43.777Z,101437.25
2022-10-30T11:34:24.855Z,101444.56
2022-10-30T11:36:53.907Z,101446.53
2022-10-30T11:39:23.376Z,101451.72
2022-10-30T11:42:01.875Z,101448.09
2022-10-30T11:44:33.733Z,101449.53
2022-10-30T11:47:02.080Z,101456.06
2022-10-30T11:49:40.228Z,101469.78
2022-10-30T11:52:08.465Z,101468.75
2022-10-30T11:54:37.840Z,101470.13
2022-10-30T11:57:06.103Z,101471.47
2022-10-30T11:59:35.331Z,101464.53
2022-10-30T12:02:04.649Z,101454.63
2022-10-30T12:04:33.111Z,101448.75
2022-10-30T12:07:19.928Z,101452.59
2022-10-30T12:09:48.740Z,101461.69
2022-10-30T12:12:23.575Z,101446.53
2022-10-30T12:14:53.562Z,101445.00
2022-10-30T12:17:22.151Z,101440.91
2022-10-30T12:19:52.866Z,101434.34
2022-10-30T12:22:26.055Z,101424.63
2022-10-30T12:24:53.988Z,101447.94
2022-10-30T12:27:22.610Z,101449.59
2022-10-30T12:30:09.222Z,101448.59
2022-10-30T12:32:46.119Z,101445.66
2022-10-30T12:35:31.998Z,101453.88
2022-10-30T12:38:01.661Z,101451.47
2022-10-30T12:40:32.054Z,101451.47
2022-10-30T12:43:06.256Z,101463.78
2022-10-30T12:45:40.298Z,101465.66
2022-10-30T12:48:16.808Z,101458.56
2022-10-30T12:50:49.148Z,101464.06
2022-10-30T12:53:25.823Z,101459.44
2022-10-30T12:55:57.220Z,101457.25
2022-10-30T12:58:32.754Z,101452.69
2022-10-30T13:01:03.225Z,101459.25
2022-10-30T13:03:36.191Z,101461.91
2022-10-30T13:06:10.477Z,101459.25
2022-10-30T13:08:40.910Z,101448.09
2022-10-30T13:11:13.098Z,101459.44
2022-10-30T13:13:43.510Z,101458.72
2022-10-30T13:16:16.984Z,101470.00
2022-10-30T13:18:44.830Z,101461.03
2022-10-30T13:21:21.892Z,101472.50
2022-10-30T13:23:53.325Z,101463.00
2022-10-30T13:26:26.415Z,101463.28
2022-10-30T13:28:57.273Z,101464.34
2022-10-30T13:31:33.705Z,101461.88
2022-10-30T13:34:05.430Z,101461.06
2022-10-30T13:36:39.548Z,101462.88
2022-10-30T13:39:17.923Z,101464.09
2022-10-30T13:41:58.781Z,101457.75
2022-10-30T13:44:33.849Z,101461.59
2022-10-30T13:47:11.965Z,101468.44
2022-10-30T13:49:53.532Z,101459.38
2022-10-30T13:52:22.575Z,101469.25
2022-10-30T13:54:56.345Z,101471.00
2022-10-30T13:57:28.373Z,101471.91
2022-10-30T14:00:02.259Z,101485.47
2022-10-30T14:03:05.647Z,101475.50
2022-10-30T14:05:39.228Z,101478.94
2022-10-30T14:08:15.140Z,101477.88
2022-10-30T14:10:46.411Z,101477.94
2022-10-30T14:13:26.748Z,101483.63
2022-10-30T14:15:57.348Z,101478.81
2022-10-30T14:18:40.086Z,101484.56
2022-10-30T14:21:40.777Z,101481.00
2022-10-30T14:24:14.732Z,101478.06
2022-10-30T14:26:51.519Z,101480.22
2022-10-30T14:29:43.295Z,101481.03
2022-10-30T14:32:33.427Z,101493.66
2022-10-30T14:35:03.294Z,101482.88
2022-10-30T14:37:58.709Z,101479.34
2022-10-30T14:40:38.378Z,101473.28
2022-10-30T14:43:11.142Z,101471.13
2022-10-30T14:45:43.522Z,101463.16
2022-10-30T14:48:19.612Z,101468.53
2022-10-30T14:51:02.424Z,101463.63
2022-10-30T14:53:35.962Z,101465.53
2022-10-30T14:56:08.377Z,101469.88
2022-10-30T14:58:36.849Z,101460.13
2022-10-30T15:01:29.020Z,101447.91
2022-10-30T15:04:09.161Z,101441.94
2022-10-30T15:06:54.901Z,101435.06
2022-10-30T15:09:31.805Z,101424.94
2022-10-30T15:12:21.471Z,101423.47
2022-10-30T15:14:54.805Z,101430.84
2022-10-30T15:17:29.288Z,101424.34
2022-10-30T15:19:57.778Z,101431.53
2022-10-30T15:22:29.020Z,101420.09
2022-10-30T15:24:57.164Z,101426.50
2022-10-30T15:27:25.948Z,101413.28
2022-10-30T15:29:55.873Z,101402.19
2022-10-30T15:32:25.125Z,101403.94
2022-10-30T15:34:55.742Z,101395.06
2022-10-30T15:37:24.023Z,101393.31
2022-10-30T15:40:10.488Z,101392.75
2022-10-30T15:42:39.073Z,101390.00
2022-10-30T15:45:10.416Z,101387.19
2022-10-30T15:47:40.437Z,101384.44
2022-10-30T15:50:10.953Z,101383.34
2022-10-30T15:52:38.923Z,101385.78
2022-10-30T15:55:10.511Z,101378.06
2022-10-30T15:58:02.302Z,101377.69
2022-10-30T16:00:32.576Z,101375.31
2022-10-30T16:03:02.425Z,101379.25
2022-10-30T16:05:31.318Z,101378.94
2022-10-30T16:08:00.434Z,101378.44
2022-10-30T16:10:34.258Z,101376.19
2022-10-30T16:13:03.034Z,101381.78
2022-10-30T16:15:32.796Z,101375.88
2022-10-30T16:18:08.471Z,101378.72
2022-10-30T16:20:37.342Z,101374.66
2022-10-30T16:23:05.786Z,101383.00
2022-10-30T16:25:38.400Z,101393.03
2022-10-30T16:28:24.348Z,101391.59
2022-10-30T16:30:52.453Z,101395.31
2022-10-30T16:33:24.732Z,101401.66
2022-10-30T16:35:55.717Z,101400.34
2022-10-30T16:38:25.185Z,101400.56
2022-10-30T16:40:54.454Z,101406.00
2022-10-30T16:43:28.007Z,101407.34
2022-10-30T16:45:57.311Z,101409.28
2022-10-30T16:48:28.571Z,101406.53
2022-10-30T16:51:04.285Z,101409.28
2022-10-30T16:53:32.559Z,101405.19
2022-10-30T16:56:01.799Z,101404.56
2022-10-30T16:58:31.825Z,101403.09
2022-10-30T17:01:04.453Z,101398.16
2022-10-30T17:03:37.604Z,101392.22
2022-10-30T17:06:07.166Z,101395.94
2022-10-30T17:08:42.101Z,101386.69
2022-10-30T17:11:19.675Z,101393.00
2022-10-30T17:13:59.495Z,101400.13
2022-10-30T17:16:29.143Z,101401.31
2022-10-30T17:18:58.357Z,101400.44
2022-10-30T17:21:29.038Z,101401.34
2022-10-30T17:23:58.215Z,101403.00
2022-10-30T17:26:28.114Z,101401.91
2022-10-30T17:28:55.982Z,101399.38
2022-10-30T17:31:28.183Z,101402.19
2022-10-30T17:34:12.480Z,101405.91
2022-10-30T17:36:40.874Z,101408.69
2022-10-30T17:39:15.632Z,101380.03
2022-10-30T17:41:44.176Z,101375.69
2022-10-30T17:44:18.440Z,101382.69
2022-10-30T17:46:46.267Z,101384.53
2022-10-30T17:49:23.705Z,101387.94
2022-10-30T17:51:51.675Z,101392.44
2022-10-30T17:54:21.068Z,101395.91
2022-10-30T17:56:49.043Z,101407.28
2022-10-30T17:59:16.989Z,101403.97
2022-10-30T18:01:45.012Z,101404.13
2022-10-30T18:04:19.693Z,101407.63
2022-10-30T18:06:49.335Z,101416.41
2022-10-30T18:09:17.157Z,101413.78
2022-10-30T18:11:46.425Z,101412.94
2022-10-30T18:14:14.234Z,101411.34
2022-10-30T18:16:42.060Z,101413.16
2022-10-30T18:19:11.837Z,101409.75
2022-10-30T18:21:39.957Z,101413.41
2022-10-30T18:24:12.636Z,101408.16
2022-10-30T18:26:41.139Z,101405.69
2022-10-30T18:29:10.733Z,101400.50
2022-10-30T18:31:39.026Z,101397.13
2022-10-30T18:34:12.680Z,101398.88
2022-10-30T18:36:40.502Z,101408.50
2022-10-30T18:39:08.361Z,101405.09
2022-10-30T18:41:38.138Z,101412.25
2022-10-30T18:44:06.253Z,101415.91
2022-10-30T18:46:35.590Z,101420.28
2022-10-30T18:49:03.612Z,101405.59
2022-10-30T18:51:32.295Z,101413.41
2022-10-30T18:54:00.110Z,101405.50
2022-10-30T18:56:29.151Z,101413.19
2022-10-30T18:59:01.924Z,101407.06
2022-10-30T19:01:31.887Z,101404.56
2022-10-30T19:04:03.459Z,101406.28
2022-10-30T19:06:32.738Z,101396.78
2022-10-30T19:09:00.525Z,101394.09
2022-10-30T19:11:31.411Z,101398.28
2022-10-30T19:14:00.437Z,101388.63
2022-10-30T19:16:28.387Z,101384.28
2022-10-30T19:18:56.195Z,101374.69
2022-10-30T19:21:26.646Z,101372.94
2022-10-30T19:23:55.461Z,101373.84
2022-10-30T19:26:23.628Z,101372.09
2022-10-30T19:28:51.477Z,101371.19
2022-10-30T19:31:20.274Z,101375.38
2022-10-30T19:33:53.052Z,101371.94
2022-10-30T19:36:30.272Z,101369.41
2022-10-30T19:38:58.445Z,101366.72
2022-10-30T19:41:26.317Z,101362.59
2022-10-30T19:43:54.573Z,101364.41
2022-10-30T19:46:22.934Z,101361.75
2022-10-30T19:48:59.289Z,101354.13
2022-10-30T19:51:29.550Z,101343.81
2022-10-30T19:53:57.444Z,101351.00
2022-10-30T19:56:25.649Z,101352.81
2022-10-30T19:58:53.611Z,101341.63
2022-10-30T20:01:21.788Z,101342.66
2022-10-30T20:03:49.830Z,101340.88
2022-10-30T20:06:18.896Z,101344.41
2022-10-30T20:08:48.273Z,101345.28
2022-10-30T20:11:16.295Z,101352.34
2022-10-30T20:13:44.349Z,101352.34
2022-10-30T20:16:12.819Z,101345.38
2022-10-30T20:18:40.679Z,101353.44
2022-10-30T20:21:11.164Z,101352.56
2022-10-30T20:23:39.176Z,101353.72
2022-10-30T20:26:17.212Z,101354.56
2022-10-30T20:28:45.834Z,101360.66
2022-10-30T20:31:14.095Z,101354.69
2022-10-30T20:33:42.370Z,101356.47
2022-10-30T20:36:11.992Z,101354.75
2022-10-30T20:38:40.174Z,101361.91
2022-10-30T20:41:20.874Z,101356.72
2022-10-30T20:43:49.985Z,101357.84
2022-10-30T20:46:18.441Z,101357.84
2022-10-30T20:48:46.725Z,101354.50
2022-10-30T20:51:14.720Z,101363.22
2022-10-30T20:53:42.774Z,101357.13
2022-10-30T20:56:12.397Z,101355.53
2022-10-30T20:58:40.496Z,101367.81
2022-10-30T21:01:08.522Z,101364.22
2022-10-30T21:03:36.401Z,101362.47
2022-10-30T21:06:04.275Z,101356.47
2022-10-30T21:08:32.414Z,101360.94
2022-10-30T21:11:00.848Z,101355.81
2022-10-30T21:13:30.276Z,101350.59
2022-10-30T21:16:01.349Z,101361.22
2022-10-30T21:18:29.350Z,101348.97
2022-10-30T21:21:01.164Z,101347.19
2022-10-30T21:23:29.016Z,101354.28
2022-10-30T21:26:00.127Z,101346.47
2022-10-30T21:28:28.035Z,101341.34
2022-10-30T21:31:01.764Z,101336.19
2022-10-30T21:33:31.137Z,101345.81
2022-10-30T21:36:01.722Z,101341.63
2022-10-30T21:38:29.776Z,101343.22
2022-10-30T21:40:57.785Z,101350.88
2022-10-30T21:43:25.744Z,101344.84
2022-10-30T21:45:53.569Z,101350.94
2022-10-30T21:48:22.889Z,101350.22
2022-10-30T21:50:50.702Z,101345.22
2022-10-30T21:53:18.529Z,101340.03
2022-10-30T21:55:46.345Z,101332.47
2022-10-30T21:58:14.181Z,101339.53
2022-10-30T22:00:42.118Z,101331.69
2022-10-30T22:03:11.056Z,101323.78
2022-10-30T22:05:40.292Z,101329.03
2022-10-30T22:08:08.153Z,101335.22
2022-10-30T22:10:35.955Z,101328.09
2022-10-30T22:13:03.858Z,101320.41
2022-10-30T22:15:31.757Z,101315.44
2022-10-30T22:17:59.927Z,101318.06
2022-10-30T22:20:27.922Z,101321.53
2022-10-30T22:22:57.283Z,101322.50
2022-10-30T22:25:25.230Z,101321.75
2022-10-30T22:27:53.098Z,101319.97
2022-10-30T22:30:20.951Z,101314.84
2022-10-30T22:32:48.832Z,101322.59
2022-10-30T22:35:16.748Z,101315.75
2022-10-30T22:37:44.584Z,101316.81
2022-10-30T22:40:13.818Z,101320.34
2022-10-30T22:42:41.669Z,101315.22
2022-10-30T22:45:10.416Z,101320.53
2022-10-30T22:47:38.283Z,101328.47
2022-10-30T22:50:07.125Z,101336.28
2022-10-30T22:52:34.974Z,101335.50
2022-10-30T22:55:02.830Z,101332.09
2022-10-30T22:57:33.037Z,101334.84
2022-10-30T23:00:01.310Z,101329.78
2022-10-30T23:02:29.222Z,101335.06
2022-10-30T23:04:57.053Z,101335.97
2022-10-30T23:07:24.950Z,101331.78
2022-10-30T23:09:52.770Z,101330.94
2022-10-30T23:12:20.575Z,101331.81
2022-10-30T23:14:49.777Z,101326.66
2022-10-30T23:17:17.630Z,101332.84
2022-10-30T23:19:45.495Z,101335.50
2022-10-30T23:22:13.388Z,101323.34
2022-10-30T23:24:41.251Z,101324.28
2022-10-30T23:27:09.150Z,101321.69
2022-10-30T23:29:37.002Z,101323.44
2022-10-30T23:32:07.479Z,101318.31
2022-10-30T23:34:35.276Z,101324.41
2022-10-30T23:37:03.064Z,101327.03
2022-10-30T23:39:30.853Z,101326.97
2022-10-30T23:41:58.678Z,101331.34
2022-10-30T23:44:26.546Z,101332.31
2022-10-30T23:46:54.621Z,101334.88
2022-10-30T23:49:23.866Z,101330.66
2022-10-30T23:51:51.653Z,101332.47
2022-10-30T23:54:19.474Z,101331.72
2022-10-30T23:56:47.328Z,101333.50
2022-10-30T23:59:15.172Z,101326.59
